sensor_id;sensor_type;location;lat;lon;timestamp;pressure;altitude;pressure_sealevel;temperature;humidity
13011;BME280;6786;57.632;11.962;2023-04-19T00:00:26;103070.63;;;18.92;37.91
13011;BME280;6786;57.632;11.962;2023-04-19T00:02:54;103072.50;;;18.90;37.91
13011;BME280;6786;57.632;11.962;2023-04-19T00:05:23;103078.81;;;18.89;37.86
13011;BME280;6786;57.632;11.962;2023-04-19T00:07:53;103075.19;;;18.90;37.84
13011;BME280;6786;57.632;11.962;2023-04-19T00:10:21;103075.19;;;18.90;37.84
13011;BME280;6786;57.632;11.962;2023-04-19T00:12:50;103085.91;;;18.90;37.87
13011;BME280;6786;57.632;11.962;2023-04-19T00:15:18;103075.19;;;18.90;37.99
13011;BME280;6786;57.632;11.962;2023-04-19T00:17:46;103069.81;;;18.90;37.93
13011;BME280;6786;57.632;11.962;2023-04-19T00:20:14;103068.09;;;18.89;37.90
13011;BME280;6786;57.632;11.962;2023-04-19T00:22:42;103071.66;;;18.89;37.94
13011;BME280;6786;57.632;11.962;2023-04-19T00:25:12;103075.19;;;18.90;37.87
13011;BME280;6786;57.632;11.962;2023-04-19T00:27:40;103073.47;;;18.89;37.79
13011;BME280;6786;57.632;11.962;2023-04-19T00:30:09;103069.06;;;18.88;37.87
13011;BME280;6786;57.632;11.962;2023-04-19T00:32:37;103067.31;;;18.87;37.91
13011;BME280;6786;57.632;11.962;2023-04-19T00:35:06;103060.06;;;18.89;37.82
13011;BME280;6786;57.632;11.962;2023-04-19T00:37:34;103072.59;;;18.88;37.76
13011;BME280;6786;57.632;11.962;2023-04-19T00:40:02;103075.19;;;18.90;37.92
13011;BME280;6786;57.632;11.962;2023-04-19T00:42:33;103077.09;;;18.88;37.82
13011;BME280;6786;57.632;11.962;2023-04-19T00:45:01;103066.38;;;18.88;37.83
13011;BME280;6786;57.632;11.962;2023-04-19T00:47:29;103071.00;;;18.84;37.88
13011;BME280;6786;57.632;11.962;2023-04-19T00:49:58;103070.13;;;18.84;37.89
13011;BME280;6786;57.632;11.962;2023-04-19T00:52:26;103073.63;;;18.86;37.87
13011;BME280;6786;57.632;11.962;2023-04-19T00:54:54;103054.38;;;18.78;37.84
13011;BME280;6786;57.632;11.962;2023-04-19T00:57:24;103069.13;;;18.86;37.73
13011;BME280;6786;57.632;11.962;2023-04-19T00:59:55;103068.25;;;18.86;37.84
13011;BME280;6786;57.632;11.962;2023-04-19T01:02:24;103058.41;;;18.86;37.70
13011;BME280;6786;57.632;11.962;2023-04-19T01:04:54;103063.78;;;18.86;37.85
13011;BME280;6786;57.632;11.962;2023-04-19T01:07:23;103065.56;;;18.86;37.79
13011;BME280;6786;57.632;11.962;2023-04-19T01:09:51;103064.78;;;18.84;37.70
13011;BME280;6786;57.632;11.962;2023-04-19T01:12:19;103071.91;;;18.85;37.82
13011;BME280;6786;57.632;11.962;2023-04-19T01:14:49;103071.91;;;18.85;37.74
13011;BME280;6786;57.632;11.962;2023-04-19T01:17:18;103075.50;;;18.84;37.73
13011;BME280;6786;57.632;11.962;2023-04-19T01:19:47;103075.50;;;18.84;37.77
13011;BME280;6786;57.632;11.962;2023-04-19T01:22:18;103076.38;;;18.84;37.80
13011;BME280;6786;57.632;11.962;2023-04-19T01:24:47;103078.19;;;18.84;37.75
13011;BME280;6786;57.632;11.962;2023-04-19T01:27:15;103072.03;;;18.82;37.71
13011;BME280;6786;57.632;11.962;2023-04-19T01:29:43;103070.13;;;18.84;37.76
13011;BME280;6786;57.632;11.962;2023-04-19T01:32:11;103030.25;;;18.61;37.74
13011;BME280;6786;57.632;11.962;2023-04-19T01:34:39;103073.78;;;18.83;37.72
13011;BME280;6786;57.632;11.962;2023-04-19T01:37:08;103082.63;;;18.85;37.82
13011;BME280;6786;57.632;11.962;2023-04-19T01:39:38;103080.84;;;18.84;37.62
13011;BME280;6786;57.632;11.962;2023-04-19T01:42:06;103074.66;;;18.83;37.60
13011;BME280;6786;57.632;11.962;2023-04-19T01:44:34;103080.84;;;18.84;37.72
13011;BME280;6786;57.632;11.962;2023-04-19T01:47:03;103078.19;;;18.84;37.66
13011;BME280;6786;57.632;11.962;2023-04-19T01:49:31;103080.09;;;18.82;37.62
13011;BME280;6786;57.632;11.962;2023-04-19T01:51:59;103073.78;;;18.83;37.59
13011;BME280;6786;57.632;11.962;2023-04-19T01:54:27;103079.13;;;18.83;37.63
13011;BME280;6786;57.632;11.962;2023-04-19T01:56:57;103080.09;;;18.82;37.70
13011;BME280;6786;57.632;11.962;2023-04-19T01:59:25;103077.41;;;18.82;37.65
13011;BME280;6786;57.632;11.962;2023-04-19T02:01:53;103073.94;;;18.80;37.72
13011;BME280;6786;57.632;11.962;2023-04-19T02:04:21;103079.22;;;18.81;37.79
13011;BME280;6786;57.632;11.962;2023-04-19T02:06:49;103082.75;;;18.82;37.50
13011;BME280;6786;57.632;11.962;2023-04-19T02:09:17;103070.28;;;18.81;37.63
13011;BME280;6786;57.632;11.962;2023-04-19T02:11:45;103075.66;;;18.81;37.64
13011;BME280;6786;57.632;11.962;2023-04-19T02:14:15;103072.03;;;18.82;37.71
13011;BME280;6786;57.632;11.962;2023-04-19T02:16:43;103081.88;;;18.81;37.66
13011;BME280;6786;57.632;11.962;2023-04-19T02:19:11;103078.25;;;18.82;37.64
13011;BME280;6786;57.632;11.962;2023-04-19T02:21:39;103079.22;;;18.81;37.63
13011;BME280;6786;57.632;11.962;2023-04-19T02:24:07;103068.50;;;18.81;37.64
13011;BME280;6786;57.632;11.962;2023-04-19T02:26:35;103064.94;;;18.81;37.74
13011;BME280;6786;57.632;11.962;2023-04-19T02:29:03;103068.50;;;18.81;37.58
13011;BME280;6786;57.632;11.962;2023-04-19T02:31:35;103064.94;;;18.81;37.55
13011;BME280;6786;57.632;11.962;2023-04-19T02:34:03;103059.56;;;18.81;37.53
13011;BME280;6786;57.632;11.962;2023-04-19T02:36:31;103056.13;;;18.79;37.66
13011;BME280;6786;57.632;11.962;2023-04-19T02:38:59;103065.81;;;18.81;37.70
13011;BME280;6786;57.632;11.962;2023-04-19T02:41:27;103064.94;;;18.81;37.56
13011;BME280;6786;57.632;11.962;2023-04-19T02:43:55;103064.94;;;18.81;37.52
13011;BME280;6786;57.632;11.962;2023-04-19T02:46:23;103064.94;;;18.81;37.53
13011;BME280;6786;57.632;11.962;2023-04-19T02:48:53;103051.59;;;18.79;37.68
13011;BME280;6786;57.632;11.962;2023-04-19T02:51:21;103056.13;;;18.79;37.57
13011;BME280;6786;57.632;11.962;2023-04-19T02:53:49;103050.69;;;18.80;37.53
13011;BME280;6786;57.632;11.962;2023-04-19T02:56:17;103047.13;;;18.80;37.63
13011;BME280;6786;57.632;11.962;2023-04-19T02:58:46;103048.84;;;18.81;37.42
13011;BME280;6786;57.632;11.962;2023-04-19T03:01:14;103043.50;;;18.81;37.46
13011;BME280;6786;57.632;11.962;2023-04-19T03:03:42;103039.97;;;18.80;37.48
13011;BME280;6786;57.632;11.962;2023-04-19T03:06:11;103037.28;;;18.80;37.43
13011;BME280;6786;57.632;11.962;2023-04-19T03:08:40;103031.94;;;18.80;37.54
13011;BME280;6786;57.632;11.962;2023-04-19T03:11:09;103041.78;;;18.80;37.56
13011;BME280;6786;57.632;11.962;2023-04-19T03:13:38;103033.09;;;18.75;37.51
13011;BME280;6786;57.632;11.962;2023-04-19T03:16:06;103039.09;;;18.80;37.44
13011;BME280;6786;57.632;11.962;2023-04-19T03:18:35;103036.41;;;18.80;37.43
13011;BME280;6786;57.632;11.962;2023-04-19T03:21:03;103034.69;;;18.79;37.44
13011;BME280;6786;57.632;11.962;2023-04-19T03:23:36;103031.06;;;18.80;37.46
13011;BME280;6786;57.632;11.962;2023-04-19T03:26:04;103020.34;;;18.80;37.49
13011;BME280;6786;57.632;11.962;2023-04-19T03:28:32;103024.75;;;18.81;37.49
13011;BME280;6786;57.632;11.962;2023-04-19T03:31:00;103025.69;;;18.80;37.44
13011;BME280;6786;57.632;11.962;2023-04-19T03:33:28;103025.69;;;18.80;37.56
13011;BME280;6786;57.632;11.962;2023-04-19T03:35:57;102934.53;;;18.29;37.52
13011;BME280;6786;57.632;11.962;2023-04-19T03:38:25;103031.06;;;18.80;37.44
13011;BME280;6786;57.632;11.962;2023-04-19T03:40:54;103032.78;;;18.81;37.41
13011;BME280;6786;57.632;11.962;2023-04-19T03:43:23;103025.69;;;18.80;37.29
13011;BME280;6786;57.632;11.962;2023-04-19T03:45:51;103029.31;;;18.79;37.42
13011;BME280;6786;57.632;11.962;2023-04-19T03:48:19;103031.06;;;18.80;37.51
13011;BME280;6786;57.632;11.962;2023-04-19T03:50:47;103031.06;;;18.80;37.49
13011;BME280;6786;57.632;11.962;2023-04-19T03:53:15;103038.13;;;18.81;37.43
13011;BME280;6786;57.632;11.962;2023-04-19T03:55:44;103027.56;;;18.78;37.50
13011;BME280;6786;57.632;11.962;2023-04-19T03:58:14;103029.31;;;18.79;37.57
13011;BME280;6786;57.632;11.962;2023-04-19T04:00:42;103031.06;;;18.80;37.42
13011;BME280;6786;57.632;11.962;2023-04-19T04:03:10;103018.63;;;18.79;37.36
13011;BME280;6786;57.632;11.962;2023-04-19T04:05:38;103023.97;;;18.79;37.43
13011;BME280;6786;57.632;11.962;2023-04-19T04:08:07;103018.63;;;18.79;37.30
13011;BME280;6786;57.632;11.962;2023-04-19T04:10:35;103023.97;;;18.79;37.28
13011;BME280;6786;57.632;11.962;2023-04-19T04:13:03;103022.38;;;18.75;37.30
13011;BME280;6786;57.632;11.962;2023-04-19T04:15:32;103016.84;;;18.78;37.30
13011;BME280;6786;57.632;11.962;2023-04-19T04:18:00;103025.69;;;18.80;37.26
13011;BME280;6786;57.632;11.962;2023-04-19T04:20:29;103023.97;;;18.79;37.23
13011;BME280;6786;57.632;11.962;2023-04-19T04:22:57;103028.38;;;18.80;37.22
13011;BME280;6786;57.632;11.962;2023-04-19T04:25:25;103025.69;;;18.80;37.24
13011;BME280;6786;57.632;11.962;2023-04-19T04:27:54;103025.84;;;18.77;37.16
13011;BME280;6786;57.632;11.962;2023-04-19T04:30:22;103036.41;;;18.80;37.23
13011;BME280;6786;57.632;11.962;2023-04-19T04:32:55;103032.94;;;18.78;37.34
13011;BME280;6786;57.632;11.962;2023-04-19T04:35:24;103027.56;;;18.78;37.18
13011;BME280;6786;57.632;11.962;2023-04-19T04:37:55;103027.56;;;18.78;37.28
13011;BME280;6786;57.632;11.962;2023-04-19T04:40:25;103020.50;;;18.77;37.31
13011;BME280;6786;57.632;11.962;2023-04-19T04:42:53;103029.31;;;18.79;37.18
13011;BME280;6786;57.632;11.962;2023-04-19T04:45:21;103028.44;;;18.78;37.21
13011;BME280;6786;57.632;11.962;2023-04-19T04:47:49;103028.53;;;18.77;37.20
13011;BME280;6786;57.632;11.962;2023-04-19T04:50:19;103027.56;;;18.78;37.31
13011;BME280;6786;57.632;11.962;2023-04-19T04:52:47;103028.44;;;18.78;37.20
13011;BME280;6786;57.632;11.962;2023-04-19T04:55:15;103029.31;;;18.79;37.18
13011;BME280;6786;57.632;11.962;2023-04-19T04:57:43;103032.94;;;18.78;37.08
13011;BME280;6786;57.632;11.962;2023-04-19T05:00:12;103029.31;;;18.79;37.25
13011;BME280;6786;57.632;11.962;2023-04-19T05:02:41;103028.38;;;18.80;37.23
13011;BME280;6786;57.632;11.962;2023-04-19T05:05:09;103023.97;;;18.79;37.11
13011;BME280;6786;57.632;11.962;2023-04-19T05:07:39;103019.47;;;18.79;37.14
13011;BME280;6786;57.632;11.962;2023-04-19T05:10:08;103025.84;;;18.77;37.27
13011;BME280;6786;57.632;11.962;2023-04-19T05:12:36;103032.94;;;18.78;37.09
13011;BME280;6786;57.632;11.962;2023-04-19T05:15:06;103032.94;;;18.78;37.04
13011;BME280;6786;57.632;11.962;2023-04-19T05:17:34;103032.94;;;18.78;37.16
13011;BME280;6786;57.632;11.962;2023-04-19T05:20:02;103038.28;;;18.78;37.08
13011;BME280;6786;57.632;11.962;2023-04-19T05:22:31;103024.13;;;18.76;37.18
13011;BME280;6786;57.632;11.962;2023-04-19T05:25:01;103027.72;;;18.75;37.32
13011;BME280;6786;57.632;11.962;2023-04-19T05:27:29;103040.19;;;18.76;37.11
13011;BME280;6786;57.632;11.962;2023-04-19T05:29:58;103027.72;;;18.75;37.16
13011;BME280;6786;57.632;11.962;2023-04-19T05:32:26;103022.22;;;18.78;37.16
13011;BME280;6786;57.632;11.962;2023-04-19T05:34:55;103029.31;;;18.79;36.93
13011;BME280;6786;57.632;11.962;2023-04-19T05:37:23;103030.19;;;18.79;37.06
13011;BME280;6786;57.632;11.962;2023-04-19T05:39:51;103032.78;;;18.81;37.12
13011;BME280;6786;57.632;11.962;2023-04-19T05:42:21;103035.47;;;18.81;37.05
13011;BME280;6786;57.632;11.962;2023-04-19T05:44:49;103023.09;;;18.78;37.04
13011;BME280;6786;57.632;11.962;2023-04-19T05:47:17;103029.31;;;18.79;37.14
13011;BME280;6786;57.632;11.962;2023-04-19T05:49:45;103026.66;;;18.79;37.08
13011;BME280;6786;57.632;11.962;2023-04-19T05:52:13;103009.69;;;18.78;37.09
13011;BME280;6786;57.632;11.962;2023-04-19T05:54:42;103018.63;;;18.79;37.07
13011;BME280;6786;57.632;11.962;2023-04-19T05:57:10;103016.84;;;18.78;37.14
13011;BME280;6786;57.632;11.962;2023-04-19T05:59:41;103003.63;;;18.75;36.98
13011;BME280;6786;57.632;11.962;2023-04-19T06:02:09;103014.09;;;18.79;36.98
13011;BME280;6786;57.632;11.962;2023-04-19T06:04:37;103014.25;;;18.76;37.09
13011;BME280;6786;57.632;11.962;2023-04-19T06:07:06;103007.16;;;18.75;37.04
13011;BME280;6786;57.632;11.962;2023-04-19T06:09:52;102999.22;;;18.74;37.22
13011;BME280;6786;57.632;11.962;2023-04-19T06:12:20;103004.56;;;18.74;37.04
13011;BME280;6786;57.632;11.962;2023-04-19T06:14:50;102998.34;;;18.73;37.04
13011;BME280;6786;57.632;11.962;2023-04-19T06:17:18;102996.53;;;18.74;36.99
13011;BME280;6786;57.632;11.962;2023-04-19T06:19:50;102999.22;;;18.74;37.00
13011;BME280;6786;57.632;11.962;2023-04-19T06:22:19;103008.97;;;18.75;37.03
13011;BME280;6786;57.632;11.962;2023-04-19T06:24:48;103009.06;;;18.73;37.06
13011;BME280;6786;57.632;11.962;2023-04-19T06:27:16;103006.28;;;18.75;37.07
13011;BME280;6786;57.632;11.962;2023-04-19T06:29:44;103000.94;;;18.75;36.99
13011;BME280;6786;57.632;11.962;2023-04-19T06:32:13;103007.25;;;18.74;37.00
13011;BME280;6786;57.632;11.962;2023-04-19T06:34:42;103007.25;;;18.74;37.02
13011;BME280;6786;57.632;11.962;2023-04-19T06:37:10;103001.88;;;18.74;37.04
13011;BME280;6786;57.632;11.962;2023-04-19T06:39:38;103001.97;;;18.72;37.02
13011;BME280;6786;57.632;11.962;2023-04-19T06:42:06;103004.56;;;18.74;37.04
13011;BME280;6786;57.632;11.962;2023-04-19T06:44:34;103017.00;;;18.75;36.96
13011;BME280;6786;57.632;11.962;2023-04-19T06:47:03;103006.28;;;18.75;36.99
13011;BME280;6786;57.632;11.962;2023-04-19T06:49:33;103009.84;;;18.75;36.97
13011;BME280;6786;57.632;11.962;2023-04-19T06:52:01;103000.94;;;18.75;37.01
13011;BME280;6786;57.632;11.962;2023-04-19T06:54:29;103003.69;;;18.73;37.01
13011;BME280;6786;57.632;11.962;2023-04-19T06:56:57;102998.25;;;18.75;37.06
13011;BME280;6786;57.632;11.962;2023-04-19T06:59:25;102984.00;;;18.74;37.06
13011;BME280;6786;57.632;11.962;2023-04-19T07:01:54;102993.84;;;18.74;37.02
13011;BME280;6786;57.632;11.962;2023-04-19T07:04:26;102999.22;;;18.74;36.93
13011;BME280;6786;57.632;11.962;2023-04-19T07:06:55;103000.94;;;18.75;36.97
13011;BME280;6786;57.632;11.962;2023-04-19T07:09:24;102984.19;;;18.71;36.93
13011;BME280;6786;57.632;11.962;2023-04-19T07:11:52;102992.97;;;18.73;36.96
13011;BME280;6786;57.632;11.962;2023-04-19T07:14:20;102994.72;;;18.74;36.82
13011;BME280;6786;57.632;11.962;2023-04-19T07:16:49;102992.13;;;18.73;37.01
13011;BME280;6786;57.632;11.962;2023-04-19T07:19:19;102979.66;;;18.72;37.06
13011;BME280;6786;57.632;11.962;2023-04-19T07:21:48;102978.75;;;18.73;36.96
13011;BME280;6786;57.632;11.962;2023-04-19T07:24:19;102990.22;;;18.75;36.96
13011;BME280;6786;57.632;11.962;2023-04-19T07:26:47;102989.47;;;18.73;37.12
13011;BME280;6786;57.632;11.962;2023-04-19T07:29:15;102987.53;;;18.75;37.09
13011;BME280;6786;57.632;11.962;2023-04-19T07:31:44;102980.53;;;18.72;36.86
13011;BME280;6786;57.632;11.962;2023-04-19T07:34:12;102989.38;;;18.74;36.93
13011;BME280;6786;57.632;11.962;2023-04-19T07:36:41;102984.88;;;18.75;37.03
13011;BME280;6786;57.632;11.962;2023-04-19T07:39:09;102980.38;;;18.75;36.91
13011;BME280;6786;57.632;11.962;2023-04-19T07:41:39;102984.00;;;18.74;37.00
13011;BME280;6786;57.632;11.962;2023-04-19T07:44:07;102981.25;;;18.76;36.99
13011;BME280;6786;57.632;11.962;2023-04-19T07:46:37;102974.16;;;18.75;37.09
13011;BME280;6786;57.632;11.962;2023-04-19T07:49:05;102975.91;;;18.76;36.90
13011;BME280;6786;57.632;11.962;2023-04-19T07:51:33;102975.03;;;18.75;36.97
13011;BME280;6786;57.632;11.962;2023-04-19T07:54:01;102974.16;;;18.75;36.93
13011;BME280;6786;57.632;11.962;2023-04-19T07:56:29;102978.59;;;18.76;36.98
13011;BME280;6786;57.632;11.962;2023-04-19T07:58:59;102974.16;;;18.75;37.04
13011;BME280;6786;57.632;11.962;2023-04-19T08:01:34;102975.91;;;18.76;37.01
13011;BME280;6786;57.632;11.962;2023-04-19T08:04:03;102975.91;;;18.76;36.87
13011;BME280;6786;57.632;11.962;2023-04-19T08:06:32;102976.81;;;18.75;37.00
13011;BME280;6786;57.632;11.962;2023-04-19T08:09:00;102971.38;;;18.76;36.96
13011;BME280;6786;57.632;11.962;2023-04-19T08:11:28;102981.25;;;18.76;36.81
13011;BME280;6786;57.632;11.962;2023-04-19T08:13:56;102981.25;;;18.76;36.84
13011;BME280;6786;57.632;11.962;2023-04-19T08:16:46;102974.16;;;18.75;36.83
13011;BME280;6786;57.632;11.962;2023-04-19T08:19:17;102979.50;;;18.75;36.90
13011;BME280;6786;57.632;11.962;2023-04-19T08:21:45;102981.25;;;18.76;36.84
13011;BME280;6786;57.632;11.962;2023-04-19T08:24:13;102968.78;;;18.75;36.85
13011;BME280;6786;57.632;11.962;2023-04-19T08:26:42;102970.53;;;18.76;36.88
13011;BME280;6786;57.632;11.962;2023-04-19T08:29:10;102975.91;;;18.76;36.85
13011;BME280;6786;57.632;11.962;2023-04-19T08:31:38;102968.78;;;18.75;36.83
13011;BME280;6786;57.632;11.962;2023-04-19T08:34:07;102967.78;;;18.77;36.76
13011;BME280;6786;57.632;11.962;2023-04-19T08:36:35;102972.25;;;18.77;36.91
13011;BME280;6786;57.632;11.962;2023-04-19T08:39:17;102975.91;;;18.76;36.87
13011;BME280;6786;57.632;11.962;2023-04-19T08:42:02;102965.19;;;18.76;36.93
13011;BME280;6786;57.632;11.962;2023-04-19T08:44:38;102966.91;;;18.77;36.89
13011;BME280;6786;57.632;11.962;2023-04-19T08:47:27;102967.78;;;18.77;36.93
13011;BME280;6786;57.632;11.962;2023-04-19T08:50:03;102958.88;;;18.77;36.79
13011;BME280;6786;57.632;11.962;2023-04-19T08:52:50;102953.66;;;18.74;36.68
13011;BME280;6786;57.632;11.962;2023-04-19T08:55:28;102947.34;;;18.75;36.92
13011;BME280;6786;57.632;11.962;2023-04-19T08:57:56;102942.16;;;18.72;36.83
13011;BME280;6786;57.632;11.962;2023-04-19T09:00:25;102940.44;;;18.71;36.84
13011;BME280;6786;57.632;11.962;2023-04-19T09:02:53;102931.28;;;18.75;36.89
13011;BME280;6786;57.632;11.962;2023-04-19T09:05:23;102935.72;;;18.76;36.91
13011;BME280;6786;57.632;11.962;2023-04-19T09:07:51;102932.88;;;18.79;36.73
13011;BME280;6786;57.632;11.962;2023-04-19T09:10:20;102934.59;;;18.80;36.83
13011;BME280;6786;57.632;11.962;2023-04-19T09:12:59;102932.78;;;18.80;36.64
13011;BME280;6786;57.632;11.962;2023-04-19T09:15:35;102931.13;;;18.78;36.76
13011;BME280;6786;57.632;11.962;2023-04-19T09:18:05;102929.25;;;18.80;36.69
13011;BME280;6786;57.632;11.962;2023-04-19T09:20:37;102932.88;;;18.79;36.80
13011;BME280;6786;57.632;11.962;2023-04-19T09:23:07;102915.94;;;18.78;36.78
13011;BME280;6786;57.632;11.962;2023-04-19T09:25:37;102918.53;;;18.80;36.82
13011;BME280;6786;57.632;11.962;2023-04-19T09:28:26;102911.44;;;18.79;36.80
13011;BME280;6786;57.632;11.962;2023-04-19T09:30:54;102913.16;;;18.80;36.71
13011;BME280;6786;57.632;11.962;2023-04-19T09:33:41;102912.28;;;18.79;36.63
13011;BME280;6786;57.632;11.962;2023-04-19T09:36:25;102903.31;;;18.80;36.57
13011;BME280;6786;57.632;11.962;2023-04-19T09:38:54;102911.44;;;18.79;36.62
13011;BME280;6786;57.632;11.962;2023-04-19T09:41:22;102904.16;;;18.81;36.71
13011;BME280;6786;57.632;11.962;2023-04-19T09:43:50;102906.09;;;18.79;36.91
13011;BME280;6786;57.632;11.962;2023-04-19T09:46:39;102879.94;;;18.67;36.76
13011;BME280;6786;57.632;11.962;2023-04-19T09:49:14;102881.34;;;18.74;36.70
13011;BME280;6786;57.632;11.962;2023-04-19T09:51:57;102891.91;;;18.77;36.90
13011;BME280;6786;57.632;11.962;2023-04-19T09:54:25;102877.69;;;18.75;36.90
13011;BME280;6786;57.632;11.962;2023-04-19T09:56:55;102880.38;;;18.75;36.86
13011;BME280;6786;57.632;11.962;2023-04-19T09:59:26;102886.53;;;18.77;36.85
13011;BME280;6786;57.632;11.962;2023-04-19T10:01:54;102880.31;;;18.76;36.78
13011;BME280;6786;57.632;11.962;2023-04-19T10:04:23;102870.47;;;18.77;36.89
13011;BME280;6786;57.632;11.962;2023-04-19T10:07:14;102860.63;;;18.77;36.79
13011;BME280;6786;57.632;11.962;2023-04-19T10:09:46;102863.22;;;18.79;36.69
13011;BME280;6786;57.632;11.962;2023-04-19T10:12:22;102866.81;;;18.78;36.71
13011;BME280;6786;57.632;11.962;2023-04-19T10:14:54;102866.81;;;18.78;36.76
13011;BME280;6786;57.632;11.962;2023-04-19T10:17:24;102857.84;;;18.79;36.83
13011;BME280;6786;57.632;11.962;2023-04-19T10:19:56;102863.22;;;18.79;36.73
13011;BME280;6786;57.632;11.962;2023-04-19T10:22:27;102853.34;;;18.79;36.76
13011;BME280;6786;57.632;11.962;2023-04-19T10:25:16;102869.41;;;18.79;36.49
13011;BME280;6786;57.632;11.962;2023-04-19T10:27:44;102847.13;;;18.79;36.71
13011;BME280;6786;57.632;11.962;2023-04-19T10:30:18;102847.13;;;18.79;36.58
13011;BME280;6786;57.632;11.962;2023-04-19T10:32:51;102817.84;;;18.59;36.64
13011;BME280;6786;57.632;11.962;2023-04-19T10:35:25;102847.13;;;18.79;36.72
13011;BME280;6786;57.632;11.962;2023-04-19T10:38:04;102838.16;;;18.80;36.50
13011;BME280;6786;57.632;11.962;2023-04-19T10:40:58;102835.47;;;18.80;36.31
13011;BME280;6786;57.632;11.962;2023-04-19T10:43:31;102825.06;;;18.74;36.67
13011;BME280;6786;57.632;11.962;2023-04-19T10:46:05;102825.88;;;18.76;36.77
13011;BME280;6786;57.632;11.962;2023-04-19T10:48:35;102836.44;;;18.79;36.56
13011;BME280;6786;57.632;11.962;2023-04-19T10:51:11;102838.16;;;18.80;36.54
13011;BME280;6786;57.632;11.962;2023-04-19T10:59:37;102820.34;;;18.79;36.51
13011;BME280;6786;57.632;11.962;2023-04-19T11:02:26;102815.00;;;18.79;36.30
13011;BME280;6786;57.632;11.962;2023-04-19T11:05:00;102810.63;;;18.76;36.51
13011;BME280;6786;57.632;11.962;2023-04-19T11:07:36;102800.72;;;18.78;36.53
13011;BME280;6786;57.632;11.962;2023-04-19T11:10:07;102815.00;;;18.79;36.52
13011;BME280;6786;57.632;11.962;2023-04-19T11:12:35;102806.94;;;18.79;36.49
13011;BME280;6786;57.632;11.962;2023-04-19T11:15:04;102793.56;;;18.79;36.57
13011;BME280;6786;57.632;11.962;2023-04-19T11:17:35;102802.53;;;18.78;36.42
13011;BME280;6786;57.632;11.962;2023-04-19T11:20:05;102799.94;;;18.76;36.61
13011;BME280;6786;57.632;11.962;2023-04-19T11:22:36;102791.81;;;18.78;36.66
13011;BME280;6786;57.632;11.962;2023-04-19T11:25:08;102772.63;;;18.70;36.54
13011;BME280;6786;57.632;11.962;2023-04-19T11:27:37;102789.13;;;18.78;36.61
13011;BME280;6786;57.632;11.962;2023-04-19T11:30:07;102759.97;;;18.56;36.62
13011;BME280;6786;57.632;11.962;2023-04-19T11:32:37;102786.44;;;18.78;36.62
13011;BME280;6786;57.632;11.962;2023-04-19T11:35:11;102790.97;;;18.77;36.60
13011;BME280;6786;57.632;11.962;2023-04-19T11:37:39;102781.09;;;18.78;36.53
13011;BME280;6786;57.632;11.962;2023-04-19T11:40:13;102757.47;;;18.69;36.40
13011;BME280;6786;57.632;11.962;2023-04-19T11:42:43;102781.09;;;18.78;36.46
13011;BME280;6786;57.632;11.962;2023-04-19T11:45:12;102781.97;;;18.78;36.44
13011;BME280;6786;57.632;11.962;2023-04-19T11:47:58;102778.41;;;18.78;36.54
13011;BME280;6786;57.632;11.962;2023-04-19T11:50:30;102763.28;;;18.77;36.40
13011;BME280;6786;57.632;11.962;2023-04-19T11:52:59;102781.09;;;18.78;36.46
13011;BME280;6786;57.632;11.962;2023-04-19T11:55:37;102778.31;;;18.79;36.50
13011;BME280;6786;57.632;11.962;2023-04-19T11:58:06;102777.47;;;18.79;36.49
13011;BME280;6786;57.632;11.962;2023-04-19T12:00:35;102768.47;;;18.80;36.42
13011;BME280;6786;57.632;11.962;2023-04-19T12:03:03;102765.88;;;18.78;36.40
13011;BME280;6786;57.632;11.962;2023-04-19T12:05:32;102776.59;;;18.78;36.48
13011;BME280;6786;57.632;11.962;2023-04-19T12:08:02;102761.56;;;18.76;36.39
13011;BME280;6786;57.632;11.962;2023-04-19T12:10:32;102775.72;;;18.78;36.37
13011;BME280;6786;57.632;11.962;2023-04-19T12:13:16;102765.00;;;18.78;36.08
13011;BME280;6786;57.632;11.962;2023-04-19T12:15:45;102759.66;;;18.78;36.34
13011;BME280;6786;57.632;11.962;2023-04-19T12:18:14;102765.00;;;18.78;36.37
13011;BME280;6786;57.632;11.962;2023-04-19T12:20:44;102754.31;;;18.78;36.39
13011;BME280;6786;57.632;11.962;2023-04-19T12:23:12;102752.50;;;18.78;36.36
13011;BME280;6786;57.632;11.962;2023-04-19T12:25:42;102751.53;;;18.79;36.22
13011;BME280;6786;57.632;11.962;2023-04-19T12:28:11;102754.22;;;18.79;36.30
13011;BME280;6786;57.632;11.962;2023-04-19T12:30:41;102756.81;;;18.81;36.35
13011;BME280;6786;57.632;11.962;2023-04-19T12:33:09;102748.78;;;18.81;36.33
13011;BME280;6786;57.632;11.962;2023-04-19T12:35:38;102743.41;;;18.81;36.19
13011;BME280;6786;57.632;11.962;2023-04-19T12:38:06;102734.63;;;18.79;36.20
13011;BME280;6786;57.632;11.962;2023-04-19T12:40:35;102747.06;;;18.80;36.24
13011;BME280;6786;57.632;11.962;2023-04-19T12:43:05;102737.22;;;18.80;36.20
13011;BME280;6786;57.632;11.962;2023-04-19T12:45:33;102737.31;;;18.79;36.25
13011;BME280;6786;57.632;11.962;2023-04-19T12:48:03;102741.69;;;18.80;36.26
13011;BME280;6786;57.632;11.962;2023-04-19T12:50:33;102734.63;;;18.79;36.22
13011;BME280;6786;57.632;11.962;2023-04-19T12:53:01;102729.25;;;18.79;36.23
13011;BME280;6786;57.632;11.962;2023-04-19T12:55:29;102721.22;;;18.79;36.08
13011;BME280;6786;57.632;11.962;2023-04-19T12:57:57;102725.63;;;18.80;36.20
13011;BME280;6786;57.632;11.962;2023-04-19T13:00:26;102722.06;;;18.79;36.23
13011;BME280;6786;57.632;11.962;2023-04-19T13:02:55;102714.03;;;18.79;36.10
13011;BME280;6786;57.632;11.962;2023-04-19T13:05:25;102709.53;;;18.80;36.08
13011;BME280;6786;57.632;11.962;2023-04-19T13:07:53;102705.06;;;18.80;36.05
13011;BME280;6786;57.632;11.962;2023-04-19T13:10:23;102669.78;;;18.57;36.16